< < Back
Terminal Aerodrome Forecast


Current Version              Previous Versions:   1  2  3  4  5  6  7  8  9  

Terminal Aerodrome Forecast

123
FTUS44 KHUN 200521
TAFHSV
TAF
KHSV 200521Z 2006/2106 00000KT P6SM SKC
     FM201800 VRB05KT P6SM SCT030
     FM210000 VRB03KT P6SM SCT250=

Latest METAR

666
SAUS80 KWBC 202000 RRA
MTRHSV
METAR KHSV 201953Z 00000KT 10SM SCT250 26/07 A3016 RMK AO2 SLP209
T02560072


USA.gov is the U.S. government's official web portal to all federal, state and local government web resources and services.